createdAt,value
2022-10-01T00:02:09.792Z,4.75
2022-10-01T00:04:38.148Z,4.65
2022-10-01T00:07:09.687Z,3.72
2022-10-01T00:09:37.627Z,4.57
2022-10-01T00:12:05.654Z,3.53
2022-10-01T00:14:33.438Z,3.83
2022-10-01T00:17:02.869Z,3.85
2022-10-01T00:19:30.877Z,3.78
2022-10-01T00:21:58.607Z,4.32
2022-10-01T00:24:26.576Z,4.35
2022-10-01T00:26:54.344Z,3.95
2022-10-01T00:29:22.153Z,4.32
2022-10-01T00:31:50.066Z,4.95
2022-10-01T00:34:19.299Z,4.60
2022-10-01T00:36:47.285Z,4.53
2022-10-01T00:39:15.693Z,3.40
2022-10-01T00:41:43.926Z,4.57
2022-10-01T00:44:33.987Z,4.45
2022-10-01T00:47:10.519Z,3.35
2022-10-01T00:49:42.144Z,3.63
2022-10-01T00:52:14.905Z,4.47
2022-10-01T00:54:45.919Z,4.63
2022-10-01T00:57:16.020Z,3.85
2022-10-01T00:59:44.204Z,4.07
2022-10-01T01:02:12.071Z,4.38
2022-10-01T01:04:42.491Z,4.60
2022-10-01T01:07:10.895Z,3.67
2022-10-01T01:09:43.449Z,3.40
2022-10-01T01:12:22.131Z,4.57
2022-10-01T01:15:03.152Z,3.67
2022-10-01T01:17:38.709Z,4.75
2022-10-01T01:20:28.832Z,4.40
2022-10-01T01:23:10.837Z,4.72
2022-10-01T01:25:47.228Z,3.65
2022-10-01T01:28:24.541Z,3.75
2022-10-01T01:30:58.025Z,4.30
2022-10-01T01:33:28.771Z,3.88
2022-10-01T01:36:00.444Z,4.20
2022-10-01T01:38:34.919Z,3.15
2022-10-01T01:41:04.250Z,3.55
2022-10-01T01:43:38.298Z,5.05
2022-10-01T01:46:10.202Z,4.68
2022-10-01T01:48:41.188Z,4.37
2022-10-01T01:51:15.729Z,5.38
2022-10-01T01:53:44.020Z,4.40
2022-10-01T01:56:11.966Z,5.45
2022-10-01T01:58:41.455Z,3.92
2022-10-01T02:01:29.387Z,4.05
2022-10-01T02:03:57.306Z,4.50
2022-10-01T02:06:32.444Z,3.50
2022-10-01T02:09:11.333Z,3.80
2022-10-01T02:11:49.811Z,3.80
2022-10-01T02:14:28.870Z,3.90
2022-10-01T02:17:01.431Z,4.07
2022-10-01T02:19:36.999Z,3.25
2022-10-01T02:22:12.542Z,4.43
2022-10-01T02:24:44.434Z,4.15
2022-10-01T02:27:16.800Z,4.00
2022-10-01T02:29:46.925Z,3.97
2022-10-01T02:32:16.531Z,4.35
2022-10-01T02:34:46.341Z,3.00
2022-10-01T02:37:14.977Z,3.50
2022-10-01T02:39:44.245Z,3.78
2022-10-01T02:42:15.632Z,3.58
2022-10-01T02:44:46.537Z,3.95
2022-10-01T02:47:21.084Z,4.05
2022-10-01T02:49:50.298Z,3.90
2022-10-01T02:52:28.473Z,3.63
2022-10-01T02:55:00.463Z,3.80
2022-10-01T02:57:27.814Z,3.53
2022-10-01T02:59:59.062Z,3.80
2022-10-01T03:02:31.494Z,3.88
2022-10-01T03:05:00.200Z,3.55
2022-10-01T03:07:30.840Z,2.97
2022-10-01T03:09:58.886Z,4.00
2022-10-01T03:12:26.719Z,3.88
2022-10-01T03:14:54.663Z,3.55
2022-10-01T03:17:22.742Z,4.00
2022-10-01T03:19:52.155Z,3.65
2022-10-01T03:22:22.581Z,4.18
2022-10-01T03:24:50.815Z,4.13
2022-10-01T03:27:19.267Z,3.63
2022-10-01T03:29:47.804Z,3.88
2022-10-01T03:32:16.248Z,2.75
2022-10-01T03:34:44.320Z,3.80
2022-10-01T03:37:13.412Z,3.50
2022-10-01T03:39:41.271Z,4.35
2022-10-01T03:42:09.103Z,2.78
2022-10-01T03:44:37.402Z,3.65
2022-10-01T03:47:05.453Z,3.00
2022-10-01T03:49:33.807Z,3.28
2022-10-01T03:52:02.279Z,3.28
2022-10-01T03:54:32.397Z,2.97
2022-10-01T03:57:00.501Z,3.53
2022-10-01T03:59:29.424Z,3.17
2022-10-01T04:01:57.235Z,3.20
2022-10-01T04:04:25.789Z,3.05
2022-10-01T04:06:53.576Z,2.72
2022-10-01T04:09:21.371Z,2.75
2022-10-01T04:11:50.633Z,3.60
2022-10-01T04:14:18.472Z,2.85
2022-10-01T04:16:46.217Z,2.75
2022-10-01T04:19:13.957Z,2.85
2022-10-01T04:21:42.121Z,3.00
2022-10-01T04:24:09.901Z,2.17
2022-10-01T04:26:37.685Z,3.22
2022-10-01T04:29:07.024Z,3.05
2022-10-01T04:31:36.061Z,2.28
2022-10-01T04:34:04.730Z,2.35
2022-10-01T04:36:32.517Z,2.72
2022-10-01T04:39:02.813Z,3.38
2022-10-01T04:41:31.799Z,2.00
2022-10-01T04:44:00.622Z,2.13
2022-10-01T04:46:31.067Z,1.95
2022-10-01T04:48:59.121Z,2.53
2022-10-01T04:51:26.900Z,1.65
2022-10-01T04:53:55.559Z,1.83
2022-10-01T04:56:23.478Z,1.88
2022-10-01T04:58:51.854Z,2.67
2022-10-01T05:01:19.614Z,1.73
2022-10-01T05:03:48.821Z,2.22
2022-10-01T05:06:16.573Z,2.65
2022-10-01T05:08:44.354Z,2.30
2022-10-01T05:11:12.322Z,2.20
2022-10-01T05:13:40.064Z,2.22
2022-10-01T05:16:08.031Z,3.17
2022-10-01T05:18:35.994Z,2.00
2022-10-01T05:21:07.907Z,1.08
2022-10-01T05:23:35.668Z,1.23
2022-10-01T05:26:05.574Z,1.55
2022-10-01T05:28:33.461Z,1.02
2022-10-01T05:31:02.467Z,0.70
2022-10-01T05:33:31.603Z,1.05
2022-10-01T05:36:04.694Z,1.05
2022-10-01T05:38:36.169Z,1.42
2022-10-01T05:41:04.912Z,1.42
2022-10-01T05:43:32.865Z,0.77
2022-10-01T05:46:02.076Z,1.35
2022-10-01T05:48:36.767Z,0.95
2022-10-01T05:51:08.191Z,0.38
2022-10-01T05:53:38.427Z,0.40
2022-10-01T05:56:07.071Z,0.63
2022-10-01T05:58:35.085Z,0.75
2022-10-01T06:01:04.052Z,0.20
2022-10-01T06:03:31.892Z,0.45
2022-10-01T06:06:00.768Z,0.85
2022-10-01T06:08:28.653Z,1.08
2022-10-01T06:11:02.045Z,1.02
2022-10-01T06:13:30.291Z,0.50
2022-10-01T06:15:58.213Z,1.25
2022-10-01T06:18:27.322Z,1.70
2022-10-01T06:20:55.072Z,1.10
2022-10-01T06:23:24.095Z,2.00
2022-10-01T06:25:51.849Z,2.88
2022-10-01T06:28:21.435Z,3.00
2022-10-01T06:30:50.023Z,1.92
2022-10-01T06:33:18.961Z,2.00
2022-10-01T06:35:48.637Z,0.50
2022-10-01T06:38:17.785Z,0.85
2022-10-01T06:40:45.777Z,0.50
2022-10-01T06:43:13.497Z,0.47
2022-10-01T06:45:43.250Z,0.38
2022-10-01T06:48:14.694Z,0.30
2022-10-01T06:50:44.420Z,0.50
2022-10-01T06:53:13.016Z,0.70
2022-10-01T06:55:41.419Z,0.40
2022-10-01T06:58:12.883Z,0.35
2022-10-01T07:00:43.233Z,0.55
2022-10-01T07:03:15.850Z,0.40
2022-10-01T07:05:44.445Z,0.20
2022-10-01T07:08:12.980Z,0.63
2022-10-01T07:10:41.591Z,0.52
2022-10-01T07:13:09.913Z,0.28
2022-10-01T07:15:38.126Z,0.20
2022-10-01T07:18:09.437Z,0.30
2022-10-01T07:20:39.776Z,0.45
2022-10-01T07:23:08.961Z,0.43
2022-10-01T07:25:38.668Z,0.28
2022-10-01T07:28:08.313Z,0.75
2022-10-01T07:30:36.343Z,0.80
2022-10-01T07:33:04.159Z,0.82
2022-10-01T07:35:33.385Z,0.52
2022-10-01T07:38:06.119Z,0.70
2022-10-01T07:43:01.719Z,0.32
2022-10-01T07:45:29.556Z,0.43
2022-10-01T07:47:59.629Z,1.38
2022-10-01T07:50:30.927Z,0.95
2022-10-01T07:53:02.779Z,0.77
2022-10-01T07:55:33.439Z,0.80
2022-10-01T07:58:03.080Z,0.90
2022-10-01T08:00:34.669Z,1.00
2022-10-01T08:03:03.305Z,2.55
2022-10-01T08:05:33.632Z,1.70
2022-10-01T08:08:05.259Z,0.63
2022-10-01T08:10:36.624Z,1.02
2022-10-01T08:13:08.894Z,1.42
2022-10-01T08:15:37.282Z,0.52
2022-10-01T08:18:06.106Z,1.80
2022-10-01T08:20:34.566Z,0.47
2022-10-01T08:23:04.490Z,1.65
2022-10-01T08:25:32.480Z,1.67
2022-10-01T08:28:01.450Z,1.00
2022-10-01T08:30:30.421Z,1.02
2022-10-01T08:32:59.382Z,0.68
2022-10-01T08:35:28.773Z,1.20
2022-10-01T08:37:57.176Z,1.23
2022-10-01T08:40:26.646Z,1.85
2022-10-01T08:42:59.375Z,1.80
2022-10-01T08:48:02.522Z,2.38
2022-10-01T08:50:40.025Z,2.35
2022-10-01T08:53:16.578Z,1.20
2022-10-01T08:55:48.261Z,1.05
2022-10-01T08:58:27.484Z,2.42
2022-10-01T09:00:55.807Z,0.98
2022-10-01T09:03:24.107Z,2.55
2022-10-01T09:06:01.377Z,1.35
2022-10-01T09:08:44.979Z,0.68
2022-10-01T09:11:27.486Z,2.65
2022-10-01T09:14:22.490Z,1.10
2022-10-01T09:17:01.056Z,1.38
2022-10-01T09:19:40.920Z,0.82
2022-10-01T09:22:17.456Z,1.58
2022-10-01T09:24:47.117Z,0.85
2022-10-01T09:27:18.925Z,0.73
2022-10-01T09:29:50.526Z,1.55
2022-10-01T09:32:22.646Z,2.50
2022-10-01T09:34:51.012Z,1.58
2022-10-01T09:37:30.137Z,2.20
2022-10-01T09:40:15.885Z,0.88
2022-10-01T09:42:45.140Z,1.30
2022-10-01T09:45:14.944Z,2.40
2022-10-01T09:47:44.958Z,2.30
2022-10-01T09:50:18.878Z,2.35
2022-10-01T09:52:51.199Z,3.58
2022-10-01T09:55:31.217Z,1.92
2022-10-01T09:58:05.717Z,2.40
2022-10-01T10:00:34.116Z,1.48
2022-10-01T10:03:02.137Z,2.17
2022-10-01T10:05:39.987Z,2.05
2022-10-01T10:08:13.726Z,1.92
2022-10-01T10:10:50.532Z,1.33
2022-10-01T10:13:26.605Z,2.08
2022-10-01T10:15:57.643Z,1.25
2022-10-01T10:18:30.452Z,1.50
2022-10-01T10:21:00.289Z,1.38
2022-10-01T10:23:29.266Z,2.60
2022-10-01T10:26:00.857Z,1.80
2022-10-01T10:28:44.029Z,2.13
2022-10-01T10:31:16.608Z,2.65
2022-10-01T10:33:54.261Z,3.30
2022-10-01T10:36:28.125Z,1.67
2022-10-01T10:38:57.407Z,2.20
2022-10-01T10:41:27.104Z,1.73
2022-10-01T10:44:01.572Z,1.90
2022-10-01T10:46:33.001Z,3.22
2022-10-01T10:49:05.793Z,3.47
2022-10-01T10:54:26.833Z,3.50
2022-10-01T10:57:02.193Z,2.45
2022-10-01T10:59:33.799Z,4.43
2022-10-01T11:02:05.774Z,3.80
2022-10-01T11:04:41.614Z,4.22
2022-10-01T11:07:13.365Z,5.35
2022-10-01T11:09:57.743Z,4.40
2022-10-01T11:12:41.056Z,3.17
2022-10-01T11:15:28.678Z,3.03
2022-10-01T11:18:19.065Z,3.75
2022-10-01T11:20:56.320Z,4.25
2022-10-01T11:23:45.958Z,4.03
2022-10-01T11:26:25.041Z,2.75
2022-10-01T11:29:05.290Z,3.05
2022-10-01T11:31:40.362Z,3.35
2022-10-01T11:34:32.267Z,3.08
2022-10-01T11:37:10.758Z,3.40
2022-10-01T11:39:42.753Z,3.00
2022-10-01T11:42:14.214Z,4.32
2022-10-01T11:44:48.611Z,3.85
2022-10-01T11:47:24.486Z,3.53
2022-10-01T11:49:59.518Z,3.28
2022-10-01T11:52:37.835Z,3.42
2022-10-01T11:55:37.622Z,2.95
2022-10-01T11:58:31.567Z,3.20
2022-10-01T12:01:07.051Z,3.05
2022-10-01T12:03:47.088Z,3.50
2022-10-01T12:06:15.927Z,2.95
2022-10-01T12:08:53.899Z,3.42
2022-10-01T12:11:29.269Z,3.75
2022-10-01T12:14:03.525Z,3.03
2022-10-01T12:16:45.111Z,2.65
2022-10-01T12:19:21.651Z,5.47
2022-10-01T12:21:54.471Z,3.22
2022-10-01T12:24:27.397Z,4.38
2022-10-01T12:27:05.996Z,5.93
2022-10-01T12:29:43.988Z,5.47
2022-10-01T12:32:22.931Z,3.70
2022-10-01T12:35:04.177Z,3.55
2022-10-01T12:37:46.965Z,4.25
2022-10-01T12:40:24.565Z,3.45
2022-10-01T12:43:16.729Z,3.08
2022-10-01T12:45:57.114Z,3.70
2022-10-01T12:48:32.293Z,4.72
2022-10-01T12:51:29.513Z,5.57
2022-10-01T12:54:12.716Z,4.05
2022-10-01T12:56:46.271Z,2.97
2022-10-01T12:59:44.563Z,2.95
2022-10-01T13:02:31.402Z,4.63
2022-10-01T13:05:23.651Z,4.93
2022-10-01T13:08:05.507Z,3.53
2022-10-01T13:10:48.702Z,5.23
2022-10-01T13:13:22.147Z,3.97
2022-10-01T13:15:55.980Z,5.63
2022-10-01T13:18:36.426Z,3.05
2022-10-01T13:21:11.598Z,4.43
2022-10-01T13:23:47.960Z,4.30
2022-10-01T13:26:20.688Z,3.92
2022-10-01T13:28:58.256Z,4.00
2022-10-01T13:31:36.055Z,3.28
2022-10-01T13:34:24.388Z,3.35
2022-10-01T13:36:52.305Z,3.60
2022-10-01T13:39:26.487Z,3.92
2022-10-01T13:41:59.065Z,7.38
2022-10-01T13:44:33.605Z,3.67
2022-10-01T13:47:06.072Z,4.47
2022-10-01T14:36:15.448Z,2.08
2022-10-01T14:38:43.404Z,4.43
2022-10-01T14:41:18.774Z,5.40
2022-10-01T14:43:47.372Z,5.00
2022-10-01T14:46:17.815Z,4.25
2022-10-01T14:48:46.135Z,5.43
2022-10-01T14:51:26.568Z,3.58
2022-10-01T14:53:55.774Z,3.05
2022-10-01T14:56:24.504Z,3.63
2022-10-01T14:58:56.465Z,4.75
2022-10-01T15:01:25.873Z,5.20
2022-10-01T15:03:55.540Z,4.07
2022-10-01T15:06:27.806Z,4.18
2022-10-01T15:09:03.468Z,3.80
2022-10-01T15:11:34.712Z,5.35
2022-10-01T15:14:05.736Z,3.25
2022-10-01T15:16:35.780Z,5.07
2022-10-01T15:19:09.591Z,3.60
2022-10-01T15:21:41.690Z,4.53
2022-10-01T15:24:20.690Z,3.50
2022-10-01T15:26:49.829Z,3.65
2022-10-01T15:29:18.462Z,4.38
2022-10-01T15:31:49.414Z,3.83
2022-10-01T15:34:19.336Z,4.50
2022-10-01T15:36:50.363Z,2.30
2022-10-01T15:39:26.548Z,3.80
2022-10-01T15:41:56.776Z,4.35
2022-10-01T15:44:45.578Z,4.38
2022-10-01T15:47:34.375Z,5.05
2022-10-01T15:50:07.613Z,4.03
2022-10-01T15:52:53.418Z,3.28
2022-10-01T15:55:28.991Z,6.10
2022-10-01T15:58:04.450Z,4.70
2022-10-01T16:00:45.789Z,4.75
2022-10-01T16:03:23.269Z,4.07
2022-10-01T16:05:54.959Z,5.25
2022-10-01T16:08:34.196Z,4.85
2022-10-01T16:11:22.366Z,4.05
2022-10-01T16:13:52.712Z,5.38
2022-10-01T16:16:24.659Z,5.07
2022-10-01T16:18:56.282Z,4.88
2022-10-01T16:21:24.800Z,3.22
2022-10-01T16:23:55.723Z,4.60
2022-10-01T16:26:35.031Z,3.63
2022-10-01T16:29:06.621Z,4.30
2022-10-01T16:31:38.073Z,5.28
2022-10-01T16:34:12.436Z,4.00
2022-10-01T16:36:40.587Z,3.92
2022-10-01T16:39:12.550Z,4.50
2022-10-01T16:41:41.525Z,5.30
2022-10-01T16:44:13.585Z,5.07
2022-10-01T16:46:42.321Z,6.47
2022-10-01T16:49:17.498Z,12.13
2022-10-01T16:51:48.056Z,6.30
2022-10-01T16:54:26.591Z,5.68
2022-10-01T16:56:55.417Z,5.85
2022-10-01T16:59:25.249Z,7.72
2022-10-01T17:01:55.842Z,4.60
2022-10-01T17:04:23.917Z,5.10
2022-10-01T17:06:51.707Z,5.57
2022-10-01T17:09:20.900Z,4.97
2022-10-01T17:11:49.552Z,4.45
2022-10-01T17:14:21.205Z,3.90
2022-10-01T17:16:50.879Z,3.58
2022-10-01T17:19:19.114Z,3.42
2022-10-01T17:21:47.649Z,3.67
2022-10-01T17:24:15.403Z,4.72
2022-10-01T17:26:46.376Z,3.42
2022-10-01T17:29:14.483Z,3.38
2022-10-01T17:31:44.780Z,4.43
2022-10-01T17:37:05.972Z,4.57
2022-10-01T17:39:34.703Z,2.80
2022-10-01T17:42:03.858Z,2.92
2022-10-01T17:44:31.891Z,4.68
2022-10-01T17:47:00.133Z,3.85
2022-10-01T17:49:28.030Z,3.78
2022-10-01T17:51:55.908Z,3.58
2022-10-01T17:54:25.305Z,4.65
2022-10-01T17:56:53.402Z,3.17
2022-10-01T17:59:23.288Z,2.85
2022-10-01T18:01:53.603Z,3.58
2022-10-01T18:04:21.398Z,2.40
2022-10-01T18:06:49.668Z,4.15
2022-10-01T18:09:17.652Z,3.85
2022-10-01T18:11:45.590Z,4.25
2022-10-01T18:14:13.360Z,2.85
2022-10-01T18:16:42.679Z,2.65
2022-10-01T18:19:52.474Z,4.32
2022-10-01T18:22:01.691Z,3.55
2022-10-01T18:24:30.369Z,3.78
2022-10-01T18:26:58.450Z,4.60
2022-10-01T18:29:28.588Z,4.15
2022-10-01T18:32:05.971Z,5.30
2022-10-01T18:34:40.873Z,5.15
2022-10-01T18:37:25.553Z,3.97
2022-10-01T18:40:00.063Z,5.30
2022-10-01T18:42:35.017Z,4.32
2022-10-01T18:45:04.373Z,3.70
2022-10-01T18:47:43.831Z,6.32
2022-10-01T18:50:35.559Z,5.45
2022-10-01T18:53:20.116Z,5.53
2022-10-01T18:56:19.770Z,5.38
2022-10-01T18:59:20.150Z,6.25
2022-10-01T19:02:02.265Z,6.57
2022-10-01T19:04:52.053Z,4.83
2022-10-01T19:07:33.819Z,6.82
2022-10-01T19:10:11.589Z,4.95
2022-10-01T19:12:50.094Z,6.65
2022-10-01T19:15:27.522Z,5.03
2022-10-01T19:18:18.469Z,6.55
2022-10-01T19:20:55.539Z,5.93
2022-10-01T19:24:05.296Z,5.28
2022-10-01T19:26:42.489Z,5.03
2022-10-01T19:29:23.344Z,6.65
2022-10-01T19:32:12.393Z,6.45
2022-10-01T19:34:56.695Z,6.38
2022-10-01T19:37:38.853Z,5.40
2022-10-01T19:43:31.892Z,5.03
2022-10-01T19:46:06.553Z,4.63
2022-10-01T19:48:46.567Z,4.75
2022-10-01T19:51:17.467Z,5.47
2022-10-01T19:53:50.606Z,5.47
2022-10-01T19:56:24.212Z,4.72
2022-10-01T19:58:52.032Z,5.28
2022-10-01T20:01:22.251Z,9.50
2022-10-01T20:03:58.330Z,6.25
2022-10-01T20:06:31.700Z,5.85
2022-10-01T20:09:04.870Z,7.03
2022-10-01T20:11:40.430Z,5.95
2022-10-01T20:14:52.345Z,7.47
2022-10-01T20:17:25.901Z,5.70
2022-10-01T20:20:02.459Z,5.35
2022-10-01T20:22:41.127Z,4.65
2022-10-01T20:25:21.823Z,6.70
2022-10-01T20:27:55.930Z,4.78
2022-10-01T20:30:24.217Z,5.15
2022-10-01T20:32:58.249Z,4.38
2022-10-01T20:35:33.953Z,4.90
2022-10-01T20:38:07.977Z,4.20
2022-10-01T20:40:41.868Z,4.50
2022-10-01T20:43:17.358Z,3.95
2022-10-01T20:45:48.296Z,3.92
2022-10-01T20:48:20.616Z,4.05
2022-10-01T20:50:53.892Z,4.65
2022-10-01T20:53:30.301Z,5.53
2022-10-01T20:56:06.316Z,6.25
2022-10-01T20:58:44.500Z,4.25
2022-10-01T21:01:17.749Z,4.50
2022-10-01T21:03:49.179Z,5.97
2022-10-01T21:06:21.076Z,6.35
2022-10-01T21:08:53.518Z,5.33
2022-10-01T21:11:31.388Z,4.55
2022-10-01T21:14:07.574Z,4.22
2022-10-01T21:17:03.857Z,6.70
2022-10-01T21:19:44.923Z,4.18
2022-10-01T21:22:25.807Z,5.47
2022-10-01T21:25:02.532Z,4.00
2022-10-01T21:27:50.128Z,5.10
2022-10-01T21:30:20.223Z,5.13
2022-10-01T21:33:07.525Z,6.20
2022-10-01T21:35:45.182Z,5.15
2022-10-01T21:38:22.706Z,4.75
2022-10-01T21:41:36.452Z,6.10
2022-10-01T21:44:34.427Z,4.38
2022-10-01T21:47:07.341Z,5.28
2022-10-01T21:49:46.629Z,5.43
2022-10-01T21:52:27.222Z,5.35
2022-10-01T21:55:31.032Z,3.63
2022-10-01T21:58:13.655Z,5.40
2022-10-01T22:00:43.291Z,5.78
2022-10-01T22:03:19.049Z,3.40
2022-10-01T22:05:54.366Z,5.60
2022-10-01T22:08:38.628Z,5.45
2022-10-01T22:11:14.771Z,5.07
2022-10-01T22:13:49.183Z,5.18
2022-10-01T22:16:20.060Z,6.57
2022-10-01T22:18:51.890Z,4.80
2022-10-01T22:21:25.946Z,4.82
2022-10-01T22:24:00.198Z,6.40
2022-10-01T22:26:32.647Z,7.00
2022-10-01T22:29:02.723Z,4.90
2022-10-01T22:31:34.629Z,7.35
2022-10-01T22:34:06.525Z,4.80
2022-10-01T22:36:41.575Z,5.60
2022-10-01T22:39:14.386Z,4.47
2022-10-01T22:44:16.309Z,3.92
2022-10-01T22:47:19.322Z,4.82
2022-10-01T22:50:02.635Z,5.38
2022-10-01T22:52:36.907Z,5.18
2022-10-01T22:55:24.501Z,5.82
2022-10-01T22:58:04.830Z,4.85
2022-10-01T23:00:37.633Z,5.43
2022-10-01T23:05:53.288Z,4.68
2022-10-01T23:08:26.669Z,5.03
2022-10-01T23:11:04.290Z,6.32
2022-10-01T23:13:42.590Z,6.10
2022-10-01T23:16:18.784Z,5.63
2022-10-01T23:18:57.616Z,5.93
2022-10-01T23:21:36.912Z,6.55
2022-10-01T23:24:20.574Z,6.65
2022-10-01T23:27:00.862Z,6.57
2022-10-01T23:29:50.772Z,5.28
2022-10-01T23:32:31.689Z,9.05
2022-10-01T23:35:05.451Z,6.47
2022-10-01T23:38:10.993Z,6.82
2022-10-01T23:40:42.169Z,5.38
2022-10-01T23:43:17.378Z,5.97
2022-10-01T23:45:50.364Z,6.57
2022-10-01T23:48:24.387Z,4.90
2022-10-01T23:50:58.963Z,6.82
2022-10-01T23:53:35.320Z,4.38
2022-10-01T23:56:25.997Z,6.43
2022-10-01T23:58:57.277Z,5.30
